sensor_id;sensor_type;location;lat;lon;timestamp;P1;durP1;ratioP1;P2;durP2;ratioP2
58896;SDS011;44677;52.378;10.400;2023-07-31T00:01:51;1.40;;;1.20;;
58896;SDS011;44677;52.378;10.400;2023-07-31T00:04:17;3.30;;;1.70;;
58896;SDS011;44677;52.378;10.400;2023-07-31T00:06:42;2.40;;;2.00;;
58896;SDS011;44677;52.378;10.400;2023-07-31T00:09:08;3.40;;;1.90;;
58896;SDS011;44677;52.378;10.400;2023-07-31T00:11:33;3.00;;;1.80;;
58896;SDS011;44677;52.378;10.400;2023-07-31T00:13:59;2.40;;;1.90;;
58896;SDS011;44677;52.378;10.400;2023-07-31T00:16:24;2.30;;;1.80;;
58896;SDS011;44677;52.378;10.400;2023-07-31T00:18:49;3.00;;;1.60;;
58896;SDS011;44677;52.378;10.400;2023-07-31T00:21:15;4.20;;;1.80;;
58896;SDS011;44677;52.378;10.400;2023-07-31T00:23:40;3.30;;;1.80;;
58896;SDS011;44677;52.378;10.400;2023-07-31T00:26:05;2.00;;;1.50;;
58896;SDS011;44677;52.378;10.400;2023-07-31T00:28:31;3.80;;;2.00;;
58896;SDS011;44677;52.378;10.400;2023-07-31T00:30:56;2.70;;;1.70;;
58896;SDS011;44677;52.378;10.400;2023-07-31T00:33:24;3.70;;;2.10;;
58896;SDS011;44677;52.378;10.400;2023-07-31T00:35:50;6.40;;;1.90;;
58896;SDS011;44677;52.378;10.400;2023-07-31T00:38:15;2.30;;;1.80;;
58896;SDS011;44677;52.378;10.400;2023-07-31T00:40:41;2.80;;;1.80;;
58896;SDS011;44677;52.378;10.400;2023-07-31T00:43:06;3.30;;;2.20;;
58896;SDS011;44677;52.378;10.400;2023-07-31T00:45:33;3.50;;;2.00;;
58896;SDS011;44677;52.378;10.400;2023-07-31T00:47:59;3.30;;;2.20;;
58896;SDS011;44677;52.378;10.400;2023-07-31T00:50:24;3.00;;;1.90;;
58896;SDS011;44677;52.378;10.400;2023-07-31T00:52:50;2.10;;;1.90;;
58896;SDS011;44677;52.378;10.400;2023-07-31T00:55:16;2.00;;;1.70;;
58896;SDS011;44677;52.378;10.400;2023-07-31T00:57:43;4.50;;;2.00;;
58896;SDS011;44677;52.378;10.400;2023-07-31T01:00:10;2.00;;;1.80;;
58896;SDS011;44677;52.378;10.400;2023-07-31T01:02:36;5.00;;;2.10;;
58896;SDS011;44677;52.378;10.400;2023-07-31T01:05:02;3.90;;;1.80;;
58896;SDS011;44677;52.378;10.400;2023-07-31T01:12:54;2.80;;;1.80;;
58896;SDS011;44677;52.378;10.400;2023-07-31T01:15:21;2.90;;;1.80;;
58896;SDS011;44677;52.378;10.400;2023-07-31T01:17:47;2.20;;;1.70;;
58896;SDS011;44677;52.378;10.400;2023-07-31T01:20:16;4.90;;;2.10;;
58896;SDS011;44677;52.378;10.400;2023-07-31T01:28:33;4.50;;;2.00;;
58896;SDS011;44677;52.378;10.400;2023-07-31T01:31:23;3.60;;;2.10;;
58896;SDS011;44677;52.378;10.400;2023-07-31T01:33:53;3.80;;;1.90;;
58896;SDS011;44677;52.378;10.400;2023-07-31T01:36:19;3.80;;;2.20;;
58896;SDS011;44677;52.378;10.400;2023-07-31T01:38:45;2.50;;;1.60;;
58896;SDS011;44677;52.378;10.400;2023-07-31T01:41:10;2.50;;;1.80;;
58896;SDS011;44677;52.378;10.400;2023-07-31T01:43:36;3.30;;;2.20;;
58896;SDS011;44677;52.378;10.400;2023-07-31T01:46:04;2.80;;;2.00;;
58896;SDS011;44677;52.378;10.400;2023-07-31T01:48:29;2.10;;;1.70;;
58896;SDS011;44677;52.378;10.400;2023-07-31T01:51:00;2.30;;;1.80;;
58896;SDS011;44677;52.378;10.400;2023-07-31T01:53:26;3.70;;;2.10;;
58896;SDS011;44677;52.378;10.400;2023-07-31T01:55:52;4.90;;;2.00;;
58896;SDS011;44677;52.378;10.400;2023-07-31T01:58:17;3.10;;;1.80;;
58896;SDS011;44677;52.378;10.400;2023-07-31T02:00:42;5.40;;;2.20;;
58896;SDS011;44677;52.378;10.400;2023-07-31T02:03:08;2.80;;;1.80;;
58896;SDS011;44677;52.378;10.400;2023-07-31T02:05:33;3.00;;;1.70;;
58896;SDS011;44677;52.378;10.400;2023-07-31T02:07:59;4.70;;;2.10;;
58896;SDS011;44677;52.378;10.400;2023-07-31T02:10:26;4.10;;;2.00;;
58896;SDS011;44677;52.378;10.400;2023-07-31T02:12:51;4.20;;;1.90;;
58896;SDS011;44677;52.378;10.400;2023-07-31T02:15:17;4.50;;;2.00;;
58896;SDS011;44677;52.378;10.400;2023-07-31T02:17:43;3.80;;;2.00;;
58896;SDS011;44677;52.378;10.400;2023-07-31T02:20:08;7.10;;;2.00;;
58896;SDS011;44677;52.378;10.400;2023-07-31T02:22:34;2.40;;;1.90;;
58896;SDS011;44677;52.378;10.400;2023-07-31T02:24:59;2.70;;;1.60;;
58896;SDS011;44677;52.378;10.400;2023-07-31T02:27:24;4.20;;;1.60;;
58896;SDS011;44677;52.378;10.400;2023-07-31T02:29:52;2.40;;;1.50;;
58896;SDS011;44677;52.378;10.400;2023-07-31T02:32:17;2.30;;;1.50;;
58896;SDS011;44677;52.378;10.400;2023-07-31T02:34:43;2.70;;;1.70;;
58896;SDS011;44677;52.378;10.400;2023-07-31T02:37:08;1.70;;;1.60;;
58896;SDS011;44677;52.378;10.400;2023-07-31T02:39:34;3.60;;;2.20;;
58896;SDS011;44677;52.378;10.400;2023-07-31T02:41:59;2.00;;;1.60;;
58896;SDS011;44677;52.378;10.400;2023-07-31T02:44:25;2.40;;;1.20;;
58896;SDS011;44677;52.378;10.400;2023-07-31T02:46:51;3.00;;;1.60;;
58896;SDS011;44677;52.378;10.400;2023-07-31T02:49:16;1.60;;;1.50;;
58896;SDS011;44677;52.378;10.400;2023-07-31T02:51:42;1.30;;;1.20;;
58896;SDS011;44677;52.378;10.400;2023-07-31T02:54:07;2.10;;;1.40;;
58896;SDS011;44677;52.378;10.400;2023-07-31T02:56:32;2.00;;;1.30;;
58896;SDS011;44677;52.378;10.400;2023-07-31T02:58:58;1.90;;;1.20;;
58896;SDS011;44677;52.378;10.400;2023-07-31T03:01:23;2.00;;;1.80;;
58896;SDS011;44677;52.378;10.400;2023-07-31T03:03:49;1.80;;;1.40;;
58896;SDS011;44677;52.378;10.400;2023-07-31T03:06:14;3.40;;;1.60;;
58896;SDS011;44677;52.378;10.400;2023-07-31T03:08:39;1.60;;;1.50;;
58896;SDS011;44677;52.378;10.400;2023-07-31T03:11:05;2.70;;;1.40;;
58896;SDS011;44677;52.378;10.400;2023-07-31T03:13:30;2.80;;;1.50;;
58896;SDS011;44677;52.378;10.400;2023-07-31T03:15:56;1.50;;;1.40;;
58896;SDS011;44677;52.378;10.400;2023-07-31T03:18:21;1.90;;;1.50;;
58896;SDS011;44677;52.378;10.400;2023-07-31T03:20:46;3.10;;;1.40;;
58896;SDS011;44677;52.378;10.400;2023-07-31T03:23:12;3.30;;;1.60;;
58896;SDS011;44677;52.378;10.400;2023-07-31T03:25:37;3.10;;;1.60;;
58896;SDS011;44677;52.378;10.400;2023-07-31T03:28:03;2.90;;;1.60;;
58896;SDS011;44677;52.378;10.400;2023-07-31T03:30:29;1.40;;;1.20;;
58896;SDS011;44677;52.378;10.400;2023-07-31T03:32:54;2.00;;;1.60;;
58896;SDS011;44677;52.378;10.400;2023-07-31T03:35:19;2.80;;;1.50;;
58896;SDS011;44677;52.378;10.400;2023-07-31T03:37:45;1.90;;;1.40;;
58896;SDS011;44677;52.378;10.400;2023-07-31T03:40:10;3.80;;;1.50;;
58896;SDS011;44677;52.378;10.400;2023-07-31T03:42:36;3.50;;;1.50;;
58896;SDS011;44677;52.378;10.400;2023-07-31T03:45:01;1.80;;;1.30;;
58896;SDS011;44677;52.378;10.400;2023-07-31T03:47:27;1.50;;;1.30;;
58896;SDS011;44677;52.378;10.400;2023-07-31T03:49:53;3.10;;;1.40;;
58896;SDS011;44677;52.378;10.400;2023-07-31T03:52:18;1.90;;;1.50;;
58896;SDS011;44677;52.378;10.400;2023-07-31T03:54:44;1.50;;;1.40;;
58896;SDS011;44677;52.378;10.400;2023-07-31T03:57:12;1.50;;;1.40;;
58896;SDS011;44677;52.378;10.400;2023-07-31T03:59:37;1.70;;;1.60;;
58896;SDS011;44677;52.378;10.400;2023-07-31T04:02:04;3.00;;;1.60;;
58896;SDS011;44677;52.378;10.400;2023-07-31T04:04:29;1.50;;;1.30;;
58896;SDS011;44677;52.378;10.400;2023-07-31T04:06:55;2.50;;;1.50;;
58896;SDS011;44677;52.378;10.400;2023-07-31T04:09:20;2.40;;;1.70;;
58896;SDS011;44677;52.378;10.400;2023-07-31T04:11:45;1.20;;;1.10;;
58896;SDS011;44677;52.378;10.400;2023-07-31T04:14:11;2.10;;;1.40;;
58896;SDS011;44677;52.378;10.400;2023-07-31T04:16:36;1.30;;;1.20;;
58896;SDS011;44677;52.378;10.400;2023-07-31T04:19:02;1.40;;;1.20;;
58896;SDS011;44677;52.378;10.400;2023-07-31T04:21:28;4.30;;;1.30;;
58896;SDS011;44677;52.378;10.400;2023-07-31T04:23:54;1.60;;;1.50;;
58896;SDS011;44677;52.378;10.400;2023-07-31T04:26:21;1.50;;;1.20;;
58896;SDS011;44677;52.378;10.400;2023-07-31T04:28:47;3.60;;;1.50;;
58896;SDS011;44677;52.378;10.400;2023-07-31T04:31:12;1.60;;;1.40;;
58896;SDS011;44677;52.378;10.400;2023-07-31T04:33:37;1.80;;;1.60;;
58896;SDS011;44677;52.378;10.400;2023-07-31T04:36:03;1.40;;;1.30;;
58896;SDS011;44677;52.378;10.400;2023-07-31T04:38:28;1.20;;;1.20;;
58896;SDS011;44677;52.378;10.400;2023-07-31T04:40:54;1.60;;;1.30;;
58896;SDS011;44677;52.378;10.400;2023-07-31T04:43:19;3.30;;;1.40;;
58896;SDS011;44677;52.378;10.400;2023-07-31T04:45:45;4.50;;;1.20;;
58896;SDS011;44677;52.378;10.400;2023-07-31T04:48:12;1.30;;;1.20;;
58896;SDS011;44677;52.378;10.400;2023-07-31T04:50:37;2.00;;;1.10;;
58896;SDS011;44677;52.378;10.400;2023-07-31T04:53:02;1.30;;;1.20;;
58896;SDS011;44677;52.378;10.400;2023-07-31T04:55:28;1.30;;;1.20;;
58896;SDS011;44677;52.378;10.400;2023-07-31T04:57:53;1.20;;;1.10;;
58896;SDS011;44677;52.378;10.400;2023-07-31T05:00:18;1.50;;;1.20;;
58896;SDS011;44677;52.378;10.400;2023-07-31T05:02:44;3.50;;;1.20;;
58896;SDS011;44677;52.378;10.400;2023-07-31T05:05:09;1.90;;;1.10;;
58896;SDS011;44677;52.378;10.400;2023-07-31T05:07:34;1.40;;;1.30;;
58896;SDS011;44677;52.378;10.400;2023-07-31T05:10:00;1.40;;;1.30;;
58896;SDS011;44677;52.378;10.400;2023-07-31T05:12:25;1.60;;;1.50;;
58896;SDS011;44677;52.378;10.400;2023-07-31T05:14:51;1.50;;;1.40;;
58896;SDS011;44677;52.378;10.400;2023-07-31T05:17:16;4.60;;;1.40;;
58896;SDS011;44677;52.378;10.400;2023-07-31T05:19:41;1.30;;;1.10;;
58896;SDS011;44677;52.378;10.400;2023-07-31T05:22:07;1.00;;;1.00;;
58896;SDS011;44677;52.378;10.400;2023-07-31T05:24:32;1.50;;;1.30;;
58896;SDS011;44677;52.378;10.400;2023-07-31T05:26:58;2.60;;;1.10;;
58896;SDS011;44677;52.378;10.400;2023-07-31T05:29:24;3.30;;;1.40;;
58896;SDS011;44677;52.378;10.400;2023-07-31T05:31:49;2.00;;;1.10;;
58896;SDS011;44677;52.378;10.400;2023-07-31T05:34:14;1.60;;;1.30;;
58896;SDS011;44677;52.378;10.400;2023-07-31T05:36:40;1.30;;;1.20;;
58896;SDS011;44677;52.378;10.400;2023-07-31T05:39:05;1.40;;;1.20;;
58896;SDS011;44677;52.378;10.400;2023-07-31T05:41:33;1.80;;;1.40;;
58896;SDS011;44677;52.378;10.400;2023-07-31T05:46:25;1.00;;;1.00;;
58896;SDS011;44677;52.378;10.400;2023-07-31T05:48:51;1.80;;;1.10;;
58896;SDS011;44677;52.378;10.400;2023-07-31T05:51:16;1.90;;;1.00;;
58896;SDS011;44677;52.378;10.400;2023-07-31T05:53:42;2.90;;;1.00;;
58896;SDS011;44677;52.378;10.400;2023-07-31T05:56:08;1.20;;;1.00;;
58896;SDS011;44677;52.378;10.400;2023-07-31T05:58:34;1.60;;;0.90;;
58896;SDS011;44677;52.378;10.400;2023-07-31T06:00:59;1.70;;;1.20;;
58896;SDS011;44677;52.378;10.400;2023-07-31T06:03:25;1.10;;;1.00;;
58896;SDS011;44677;52.378;10.400;2023-07-31T06:05:50;1.30;;;1.10;;
58896;SDS011;44677;52.378;10.400;2023-07-31T06:08:15;1.30;;;1.20;;
58896;SDS011;44677;52.378;10.400;2023-07-31T06:10:41;1.30;;;1.20;;
58896;SDS011;44677;52.378;10.400;2023-07-31T06:13:06;1.80;;;1.00;;
58896;SDS011;44677;52.378;10.400;2023-07-31T06:15:32;1.70;;;1.10;;
58896;SDS011;44677;52.378;10.400;2023-07-31T06:17:57;2.20;;;1.30;;
58896;SDS011;44677;52.378;10.400;2023-07-31T06:20:22;2.60;;;1.50;;
58896;SDS011;44677;52.378;10.400;2023-07-31T06:22:48;2.20;;;1.20;;
58896;SDS011;44677;52.378;10.400;2023-07-31T06:25:13;1.50;;;1.40;;
58896;SDS011;44677;52.378;10.400;2023-07-31T06:27:38;1.80;;;1.70;;
58896;SDS011;44677;52.378;10.400;2023-07-31T06:30:04;2.30;;;2.10;;
58896;SDS011;44677;52.378;10.400;2023-07-31T06:32:30;2.40;;;2.20;;
58896;SDS011;44677;52.378;10.400;2023-07-31T06:34:55;2.80;;;2.50;;
58896;SDS011;44677;52.378;10.400;2023-07-31T06:37:21;3.90;;;3.00;;
58896;SDS011;44677;52.378;10.400;2023-07-31T06:39:46;7.90;;;3.50;;
58896;SDS011;44677;52.378;10.400;2023-07-31T06:42:12;5.40;;;3.60;;
58896;SDS011;44677;52.378;10.400;2023-07-31T06:44:37;7.10;;;4.20;;
58896;SDS011;44677;52.378;10.400;2023-07-31T06:47:02;8.80;;;4.80;;
58896;SDS011;44677;52.378;10.400;2023-07-31T06:49:28;7.90;;;4.70;;
58896;SDS011;44677;52.378;10.400;2023-07-31T06:51:53;6.70;;;5.10;;
58896;SDS011;44677;52.378;10.400;2023-07-31T06:54:19;10.10;;;5.60;;
58896;SDS011;44677;52.378;10.400;2023-07-31T06:56:44;9.00;;;5.40;;
58896;SDS011;44677;52.378;10.400;2023-07-31T06:59:10;8.30;;;5.10;;
58896;SDS011;44677;52.378;10.400;2023-07-31T07:01:35;7.20;;;5.00;;
58896;SDS011;44677;52.378;10.400;2023-07-31T07:04:01;10.50;;;5.70;;
58896;SDS011;44677;52.378;10.400;2023-07-31T07:06:26;7.60;;;5.60;;
58896;SDS011;44677;52.378;10.400;2023-07-31T07:08:52;8.70;;;5.60;;
58896;SDS011;44677;52.378;10.400;2023-07-31T07:11:17;9.00;;;5.00;;
58896;SDS011;44677;52.378;10.400;2023-07-31T07:13:42;6.60;;;5.50;;
58896;SDS011;44677;52.378;10.400;2023-07-31T07:16:08;8.80;;;5.80;;
58896;SDS011;44677;52.378;10.400;2023-07-31T07:18:35;7.60;;;5.70;;
58896;SDS011;44677;52.378;10.400;2023-07-31T07:21:00;7.90;;;5.40;;
58896;SDS011;44677;52.378;10.400;2023-07-31T07:23:27;8.00;;;5.70;;
58896;SDS011;44677;52.378;10.400;2023-07-31T07:25:52;9.10;;;6.20;;
58896;SDS011;44677;52.378;10.400;2023-07-31T07:28:20;10.20;;;6.80;;
58896;SDS011;44677;52.378;10.400;2023-07-31T07:30:50;9.60;;;7.40;;
58896;SDS011;44677;52.378;10.400;2023-07-31T07:33:17;12.10;;;7.80;;
58896;SDS011;44677;52.378;10.400;2023-07-31T07:35:43;13.00;;;7.50;;
58896;SDS011;44677;52.378;10.400;2023-07-31T07:38:08;11.60;;;7.60;;
58896;SDS011;44677;52.378;10.400;2023-07-31T07:40:38;12.80;;;8.30;;
58896;SDS011;44677;52.378;10.400;2023-07-31T07:43:04;13.30;;;8.40;;
58896;SDS011;44677;52.378;10.400;2023-07-31T07:45:29;13.50;;;8.50;;
58896;SDS011;44677;52.378;10.400;2023-07-31T07:47:55;12.20;;;7.80;;
58896;SDS011;44677;52.378;10.400;2023-07-31T07:50:20;12.00;;;8.60;;
58896;SDS011;44677;52.378;10.400;2023-07-31T07:52:46;13.00;;;8.60;;
58896;SDS011;44677;52.378;10.400;2023-07-31T07:55:11;14.10;;;8.70;;
58896;SDS011;44677;52.378;10.400;2023-07-31T07:57:36;16.30;;;9.10;;
58896;SDS011;44677;52.378;10.400;2023-07-31T08:00:02;14.10;;;8.50;;
58896;SDS011;44677;52.378;10.400;2023-07-31T08:02:39;13.60;;;9.30;;
58896;SDS011;44677;52.378;10.400;2023-07-31T08:05:04;12.40;;;9.40;;
58896;SDS011;44677;52.378;10.400;2023-07-31T08:07:30;14.60;;;9.20;;
58896;SDS011;44677;52.378;10.400;2023-07-31T08:09:55;16.60;;;9.40;;
58896;SDS011;44677;52.378;10.400;2023-07-31T08:12:21;15.40;;;9.50;;
58896;SDS011;44677;52.378;10.400;2023-07-31T08:14:46;17.30;;;9.10;;
58896;SDS011;44677;52.378;10.400;2023-07-31T08:17:11;12.70;;;8.80;;
58896;SDS011;44677;52.378;10.400;2023-07-31T08:19:37;15.40;;;9.60;;
58896;SDS011;44677;52.378;10.400;2023-07-31T08:22:02;15.00;;;8.60;;
58896;SDS011;44677;52.378;10.400;2023-07-31T08:24:28;16.10;;;8.80;;
58896;SDS011;44677;52.378;10.400;2023-07-31T08:26:53;12.10;;;8.00;;
58896;SDS011;44677;52.378;10.400;2023-07-31T08:29:18;11.60;;;8.10;;
58896;SDS011;44677;52.378;10.400;2023-07-31T08:31:44;11.60;;;7.30;;
58896;SDS011;44677;52.378;10.400;2023-07-31T08:34:09;10.90;;;7.20;;
58896;SDS011;44677;52.378;10.400;2023-07-31T08:36:35;12.90;;;7.00;;
58896;SDS011;44677;52.378;10.400;2023-07-31T08:39:00;12.40;;;7.30;;
58896;SDS011;44677;52.378;10.400;2023-07-31T08:41:25;16.30;;;6.90;;
58896;SDS011;44677;52.378;10.400;2023-07-31T08:43:52;9.70;;;6.40;;
58896;SDS011;44677;52.378;10.400;2023-07-31T08:46:18;13.00;;;6.70;;
58896;SDS011;44677;52.378;10.400;2023-07-31T08:48:45;12.30;;;6.20;;
58896;SDS011;44677;52.378;10.400;2023-07-31T08:51:13;11.80;;;6.10;;
58896;SDS011;44677;52.378;10.400;2023-07-31T08:53:39;12.10;;;6.20;;
58896;SDS011;44677;52.378;10.400;2023-07-31T08:56:05;8.70;;;5.90;;
58896;SDS011;44677;52.378;10.400;2023-07-31T08:58:31;8.80;;;5.30;;
58896;SDS011;44677;52.378;10.400;2023-07-31T09:03:27;10.70;;;5.90;;
58896;SDS011;44677;52.378;10.400;2023-07-31T09:05:53;8.90;;;5.70;;
58896;SDS011;44677;52.378;10.400;2023-07-31T09:08:21;11.70;;;5.90;;
58896;SDS011;44677;52.378;10.400;2023-07-31T09:10:47;10.10;;;6.30;;
58896;SDS011;44677;52.378;10.400;2023-07-31T09:13:13;9.10;;;6.10;;
58896;SDS011;44677;52.378;10.400;2023-07-31T09:15:40;13.10;;;5.80;;
58896;SDS011;44677;52.378;10.400;2023-07-31T09:18:08;9.50;;;5.70;;
58896;SDS011;44677;52.378;10.400;2023-07-31T09:20:34;10.00;;;5.80;;
58896;SDS011;44677;52.378;10.400;2023-07-31T09:25:36;7.40;;;5.50;;
58896;SDS011;44677;52.378;10.400;2023-07-31T09:28:03;11.00;;;6.30;;
58896;SDS011;44677;52.378;10.400;2023-07-31T09:30:30;10.90;;;5.60;;
58896;SDS011;44677;52.378;10.400;2023-07-31T09:33:00;8.50;;;5.70;;
58896;SDS011;44677;52.378;10.400;2023-07-31T09:35:34;8.00;;;6.10;;
58896;SDS011;44677;52.378;10.400;2023-07-31T09:38:13;9.80;;;5.70;;
58896;SDS011;44677;52.378;10.400;2023-07-31T09:40:45;9.70;;;5.30;;
58896;SDS011;44677;52.378;10.400;2023-07-31T09:43:13;7.30;;;5.70;;
58896;SDS011;44677;52.378;10.400;2023-07-31T09:45:41;8.80;;;5.30;;
58896;SDS011;44677;52.378;10.400;2023-07-31T09:50:43;6.80;;;5.30;;
58896;SDS011;44677;52.378;10.400;2023-07-31T09:53:12;8.10;;;5.40;;
58896;SDS011;44677;52.378;10.400;2023-07-31T09:55:38;8.40;;;5.70;;
58896;SDS011;44677;52.378;10.400;2023-07-31T09:58:05;8.30;;;4.10;;
58896;SDS011;44677;52.378;10.400;2023-07-31T10:00:32;7.70;;;4.40;;
58896;SDS011;44677;52.378;10.400;2023-07-31T10:02:59;10.10;;;4.30;;
58896;SDS011;44677;52.378;10.400;2023-07-31T10:05:30;5.50;;;4.10;;
58896;SDS011;44677;52.378;10.400;2023-07-31T10:07:59;8.70;;;4.50;;
58896;SDS011;44677;52.378;10.400;2023-07-31T10:10:25;4.30;;;3.90;;
58896;SDS011;44677;52.378;10.400;2023-07-31T10:12:52;3.60;;;3.10;;
58896;SDS011;44677;52.378;10.400;2023-07-31T10:15:18;4.70;;;3.20;;
58896;SDS011;44677;52.378;10.400;2023-07-31T10:17:47;4.00;;;3.10;;
58896;SDS011;44677;52.378;10.400;2023-07-31T10:20:14;5.30;;;3.30;;
58896;SDS011;44677;52.378;10.400;2023-07-31T10:22:41;4.00;;;3.10;;
58896;SDS011;44677;52.378;10.400;2023-07-31T10:25:11;5.90;;;3.00;;
58896;SDS011;44677;52.378;10.400;2023-07-31T10:27:37;4.30;;;2.90;;
58896;SDS011;44677;52.378;10.400;2023-07-31T10:30:14;5.50;;;3.60;;
58896;SDS011;44677;52.378;10.400;2023-07-31T10:32:43;4.40;;;3.20;;
58896;SDS011;44677;52.378;10.400;2023-07-31T10:45:12;4.30;;;3.60;;
58896;SDS011;44677;52.378;10.400;2023-07-31T10:47:38;5.80;;;3.80;;
58896;SDS011;44677;52.378;10.400;2023-07-31T10:52:59;4.70;;;3.60;;
58896;SDS011;44677;52.378;10.400;2023-07-31T10:55:42;10.30;;;4.00;;
58896;SDS011;44677;52.378;10.400;2023-07-31T10:58:12;3.90;;;3.40;;
58896;SDS011;44677;52.378;10.400;2023-07-31T11:00:39;4.40;;;3.90;;
58896;SDS011;44677;52.378;10.400;2023-07-31T11:08:30;3.30;;;2.90;;
58896;SDS011;44677;52.378;10.400;2023-07-31T11:16:07;4.40;;;3.00;;
58896;SDS011;44677;52.378;10.400;2023-07-31T11:18:34;4.60;;;3.00;;
58896;SDS011;44677;52.378;10.400;2023-07-31T11:21:00;4.00;;;3.10;;
58896;SDS011;44677;52.378;10.400;2023-07-31T11:23:25;7.90;;;3.00;;
58896;SDS011;44677;52.378;10.400;2023-07-31T11:25:50;2.90;;;2.70;;
58896;SDS011;44677;52.378;10.400;2023-07-31T11:28:16;5.10;;;2.90;;
58896;SDS011;44677;52.378;10.400;2023-07-31T11:30:44;4.20;;;2.70;;
58896;SDS011;44677;52.378;10.400;2023-07-31T11:33:12;4.70;;;2.70;;
58896;SDS011;44677;52.378;10.400;2023-07-31T11:35:45;4.70;;;3.00;;
58896;SDS011;44677;52.378;10.400;2023-07-31T11:38:12;3.10;;;2.70;;
58896;SDS011;44677;52.378;10.400;2023-07-31T11:40:44;3.50;;;2.90;;
58896;SDS011;44677;52.378;10.400;2023-07-31T11:43:10;4.50;;;2.80;;
58896;SDS011;44677;52.378;10.400;2023-07-31T11:45:41;5.40;;;3.30;;
58896;SDS011;44677;52.378;10.400;2023-07-31T11:48:07;4.90;;;2.40;;
58896;SDS011;44677;52.378;10.400;2023-07-31T11:50:33;3.00;;;2.60;;
58896;SDS011;44677;52.378;10.400;2023-07-31T11:55:24;4.00;;;2.60;;
58896;SDS011;44677;52.378;10.400;2023-07-31T11:57:50;6.30;;;2.60;;
58896;SDS011;44677;52.378;10.400;2023-07-31T12:00:16;3.20;;;2.60;;
58896;SDS011;44677;52.378;10.400;2023-07-31T12:02:42;3.20;;;2.20;;
58896;SDS011;44677;52.378;10.400;2023-07-31T12:05:11;4.90;;;2.70;;
58896;SDS011;44677;52.378;10.400;2023-07-31T12:07:44;3.00;;;2.40;;
58896;SDS011;44677;52.378;10.400;2023-07-31T12:10:11;3.30;;;2.50;;
58896;SDS011;44677;52.378;10.400;2023-07-31T12:12:36;3.00;;;2.50;;
58896;SDS011;44677;52.378;10.400;2023-07-31T12:15:02;2.70;;;2.30;;
58896;SDS011;44677;52.378;10.400;2023-07-31T12:17:27;4.80;;;2.50;;
58896;SDS011;44677;52.378;10.400;2023-07-31T12:19:53;2.50;;;2.20;;
58896;SDS011;44677;52.378;10.400;2023-07-31T12:22:19;4.70;;;2.30;;
58896;SDS011;44677;52.378;10.400;2023-07-31T12:24:46;2.50;;;2.10;;
58896;SDS011;44677;52.378;10.400;2023-07-31T12:27:12;2.80;;;2.50;;
58896;SDS011;44677;52.378;10.400;2023-07-31T12:32:05;2.90;;;2.30;;
58896;SDS011;44677;52.378;10.400;2023-07-31T12:34:43;2.40;;;2.20;;
58896;SDS011;44677;52.378;10.400;2023-07-31T12:37:08;2.40;;;2.20;;
58896;SDS011;44677;52.378;10.400;2023-07-31T12:39:34;4.70;;;3.10;;
58896;SDS011;44677;52.378;10.400;2023-07-31T12:41:59;2.30;;;1.80;;
58896;SDS011;44677;52.378;10.400;2023-07-31T12:44:25;2.10;;;1.80;;
58896;SDS011;44677;52.378;10.400;2023-07-31T12:46:50;1.80;;;1.70;;
58896;SDS011;44677;52.378;10.400;2023-07-31T12:49:15;2.60;;;2.00;;
58896;SDS011;44677;52.378;10.400;2023-07-31T12:51:41;2.90;;;1.90;;
58896;SDS011;44677;52.378;10.400;2023-07-31T12:54:06;2.00;;;1.80;;
58896;SDS011;44677;52.378;10.400;2023-07-31T12:56:32;2.50;;;1.90;;
58896;SDS011;44677;52.378;10.400;2023-07-31T12:58:57;2.20;;;2.00;;
58896;SDS011;44677;52.378;10.400;2023-07-31T13:01:23;3.00;;;1.50;;
58896;SDS011;44677;52.378;10.400;2023-07-31T13:03:48;2.10;;;1.90;;
58896;SDS011;44677;52.378;10.400;2023-07-31T13:06:13;2.20;;;1.90;;
58896;SDS011;44677;52.378;10.400;2023-07-31T13:08:39;3.40;;;2.00;;
58896;SDS011;44677;52.378;10.400;2023-07-31T13:11:04;2.90;;;1.80;;
58896;SDS011;44677;52.378;10.400;2023-07-31T13:13:30;2.90;;;1.70;;
58896;SDS011;44677;52.378;10.400;2023-07-31T13:15:56;2.00;;;1.80;;
58896;SDS011;44677;52.378;10.400;2023-07-31T13:18:21;1.90;;;1.70;;
58896;SDS011;44677;52.378;10.400;2023-07-31T13:20:47;2.00;;;1.80;;
58896;SDS011;44677;52.378;10.400;2023-07-31T13:23:12;2.60;;;1.80;;
58896;SDS011;44677;52.378;10.400;2023-07-31T13:25:37;2.30;;;1.70;;
58896;SDS011;44677;52.378;10.400;2023-07-31T13:28:03;2.20;;;1.70;;
58896;SDS011;44677;52.378;10.400;2023-07-31T13:30:28;1.70;;;1.50;;
58896;SDS011;44677;52.378;10.400;2023-07-31T13:32:54;1.30;;;1.20;;
58896;SDS011;44677;52.378;10.400;2023-07-31T13:35:19;1.50;;;1.40;;
58896;SDS011;44677;52.378;10.400;2023-07-31T13:37:44;3.80;;;1.30;;
58896;SDS011;44677;52.378;10.400;2023-07-31T13:40:10;5.80;;;1.30;;
58896;SDS011;44677;52.378;10.400;2023-07-31T13:42:36;1.20;;;1.00;;
58896;SDS011;44677;52.378;10.400;2023-07-31T13:45:01;1.00;;;0.90;;
58896;SDS011;44677;52.378;10.400;2023-07-31T13:47:26;1.00;;;1.00;;
58896;SDS011;44677;52.378;10.400;2023-07-31T13:49:52;1.40;;;1.30;;
58896;SDS011;44677;52.378;10.400;2023-07-31T13:52:17;2.10;;;1.00;;
58896;SDS011;44677;52.378;10.400;2023-07-31T13:54:43;2.40;;;1.00;;
58896;SDS011;44677;52.378;10.400;2023-07-31T13:57:08;1.90;;;1.10;;
58896;SDS011;44677;52.378;10.400;2023-07-31T13:59:33;1.00;;;1.00;;
58896;SDS011;44677;52.378;10.400;2023-07-31T14:01:59;2.30;;;0.90;;
58896;SDS011;44677;52.378;10.400;2023-07-31T14:04:24;0.80;;;0.80;;
58896;SDS011;44677;52.378;10.400;2023-07-31T14:06:50;1.10;;;0.80;;
58896;SDS011;44677;52.378;10.400;2023-07-31T14:09:15;0.90;;;0.90;;
58896;SDS011;44677;52.378;10.400;2023-07-31T14:11:42;1.00;;;0.90;;
58896;SDS011;44677;52.378;10.400;2023-07-31T14:14:08;0.70;;;0.70;;
58896;SDS011;44677;52.378;10.400;2023-07-31T14:16:35;0.90;;;0.60;;
58896;SDS011;44677;52.378;10.400;2023-07-31T14:19:00;1.50;;;0.70;;
58896;SDS011;44677;52.378;10.400;2023-07-31T14:21:25;0.70;;;0.70;;
58896;SDS011;44677;52.378;10.400;2023-07-31T14:23:51;0.70;;;0.60;;
58896;SDS011;44677;52.378;10.400;2023-07-31T14:26:16;0.70;;;0.70;;
58896;SDS011;44677;52.378;10.400;2023-07-31T14:28:42;0.70;;;0.70;;
58896;SDS011;44677;52.378;10.400;2023-07-31T14:31:07;2.10;;;0.70;;
58896;SDS011;44677;52.378;10.400;2023-07-31T14:33:33;0.70;;;0.70;;
58896;SDS011;44677;52.378;10.400;2023-07-31T14:35:58;0.60;;;0.60;;
58896;SDS011;44677;52.378;10.400;2023-07-31T14:38:24;0.50;;;0.50;;
58896;SDS011;44677;52.378;10.400;2023-07-31T14:40:49;1.10;;;0.70;;
58896;SDS011;44677;52.378;10.400;2023-07-31T14:43:16;0.60;;;0.60;;
58896;SDS011;44677;52.378;10.400;2023-07-31T14:45:41;1.50;;;0.70;;
58896;SDS011;44677;52.378;10.400;2023-07-31T14:48:07;1.10;;;0.90;;
58896;SDS011;44677;52.378;10.400;2023-07-31T14:50:32;0.90;;;0.90;;
58896;SDS011;44677;52.378;10.400;2023-07-31T14:52:57;0.70;;;0.70;;
58896;SDS011;44677;52.378;10.400;2023-07-31T14:55:23;1.30;;;0.70;;
58896;SDS011;44677;52.378;10.400;2023-07-31T14:57:48;1.20;;;1.10;;
58896;SDS011;44677;52.378;10.400;2023-07-31T15:00:14;0.70;;;0.70;;
58896;SDS011;44677;52.378;10.400;2023-07-31T15:02:40;1.40;;;0.80;;
58896;SDS011;44677;52.378;10.400;2023-07-31T15:05:05;1.40;;;1.00;;
58896;SDS011;44677;52.378;10.400;2023-07-31T15:07:32;0.90;;;0.80;;
58896;SDS011;44677;52.378;10.400;2023-07-31T15:09:58;1.00;;;0.70;;
58896;SDS011;44677;52.378;10.400;2023-07-31T15:12:23;2.60;;;0.70;;
58896;SDS011;44677;52.378;10.400;2023-07-31T15:14:49;0.70;;;0.70;;
58896;SDS011;44677;52.378;10.400;2023-07-31T15:17:15;1.00;;;1.00;;